Oriana — ZCDU9 — position and weather

sailwx.info

Track history (hours):
 
Tides and Currents Weather Stations Pressure Air Temp Water Temp Dewpoint Dewpoint Depression Visibility Wind Speed Wind Dir Waves Ship Positions

Oriana (Bermuda)

Last reported at 2015-May-03 08:00 UTC. Time now 2015-May-03 20:53 UTC.
Position N 40°54' W 022°36'.

Length 261 m; beam 32.2 m; draft 8.2 m.

Type: Ship. MMSI: 310529000.

Wind from 280 at 7 knots

Barometer 1006.5 mb
Air temperature 14.4 ° C
Visibility: greater than 5.4 NM
Dewpoint 12.2 ° C
Water temperature 15.0 ° C

Date/timePositionNaut miles runAvg speedWind from/ knotsBaromVisibWave heightAir tempDewpointWater temp
2015-May-03 08:00N 40°54' W 022°36'24317.6 280 / 71006.5 5.4 14.412.215.0
2015-May-02 18:10N 38°43' W 027°03'0 0.0
2015-May-02 14:15N 38°43' W 027°03'0 0.0
2015-May-02 13:30N 38°43' W 027°03'0 0.0
2015-May-02 12:33N 38°43' W 027°03'0 0.0
2015-May-02 11:34N 38°43' W 027°03'0 0.0
2015-May-02 10:27N 38°43' W 027°03'0 0.0
2015-May-02 09:33N 38°43' W 027°03'0 0.4
2015-May-02 08:33N 38°43' W 027°03'7 7.3
2015-May-02 07:33N 38°37' W 026°58'2121.4
2015-May-02 06:33N 38°23' W 027°18'2221.5
2015-May-02 05:33N 38°14' W 027°43'2121.1
2015-May-02 04:33N 38°06' W 028°08'2121.3
2015-May-02 03:33N 37°58' W 028°33'2121.3
2015-May-02 02:33N 37°49' W 028°58'2121.3
2015-May-02 01:33N 37°41' W 029°22'2221.3
2015-May-02 00:32N 37°32' W 029°48'2821.7
2015-May-01 23:15N 37°21' W 030°20'1521.3
2015-May-01 22:32N 37°15' W 030°38'28120.7
2015-May-01 09:00N 35°18' W 035°54'   290 / 71007.4 5.4 0.516.514.819.0
2015-Apr-26 18:16N 25°05' W 077°20'0 0.0
2015-Apr-26 13:19N 25°05' W 077°20'0 0.0
2015-Apr-26 12:29N 25°05' W 077°20'5016.2
2015-Apr-26 09:24N 25°50' W 077°44'2022.3
2015-Apr-26 08:31N 26°01' W 078°02'2222.9
2015-Apr-26 07:33N 26°12' W 078°23'30 4.7
2015-Apr-26 01:08N 26°29' W 078°51'3421.0
2015-Apr-25 23:32N 26°05' W 079°18'2323.7
2015-Apr-25 22:34N 25°44' W 079°27'  
Track history (hours):
 
Tides and Currents Weather Stations Pressure Air Temp Water Temp Dewpoint Dewpoint Depression Visibility Wind Speed Wind Dir Waves Ship Positions

Oriana (Bermuda)

Last reported at 2015-May-03 08:00 UTC. Time now 2015-May-03 20:53 UTC.
Position N 40°54' W 022°36'.

Length 261 m; beam 32.2 m; draft 8.2 m.

Type: Ship. MMSI: 310529000.

Wind from 280 at 7 knots

Barometer 1006.5 mb
Air temperature 14.4 ° C
Visibility: greater than 5.4 NM
Dewpoint 12.2 ° C
Water temperature 15.0 ° C

Date/timePositionNaut miles runAvg speedWind from/ knotsBaromVisibWave heightAir tempDewpointWater temp
2015-May-03 08:00N 40°54' W 022°36'24317.6 280 / 71006.5 5.4 14.412.215.0
2015-May-02 18:10N 38°43' W 027°03'0 0.0
2015-May-02 14:15N 38°43' W 027°03'0 0.0
2015-May-02 13:30N 38°43' W 027°03'0 0.0
2015-May-02 12:33N 38°43' W 027°03'0 0.0
2015-May-02 11:34N 38°43' W 027°03'0 0.0
2015-May-02 10:27N 38°43' W 027°03'0 0.0
2015-May-02 09:33N 38°43' W 027°03'0 0.4
2015-May-02 08:33N 38°43' W 027°03'7 7.3
2015-May-02 07:33N 38°37' W 026°58'2121.4
2015-May-02 06:33N 38°23' W 027°18'2221.5
2015-May-02 05:33N 38°14' W 027°43'2121.1
2015-May-02 04:33N 38°06' W 028°08'2121.3
2015-May-02 03:33N 37°58' W 028°33'2121.3
2015-May-02 02:33N 37°49' W 028°58'2121.3
2015-May-02 01:33N 37°41' W 029°22'2221.3
2015-May-02 00:32N 37°32' W 029°48'2821.7
2015-May-01 23:15N 37°21' W 030°20'1521.3
2015-May-01 22:32N 37°15' W 030°38'28120.7
2015-May-01 09:00N 35°18' W 035°54'   290 / 71007.4 5.4 0.516.514.819.0
2015-Apr-26 18:16N 25°05' W 077°20'0 0.0
2015-Apr-26 13:19N 25°05' W 077°20'0 0.0
2015-Apr-26 12:29N 25°05' W 077°20'5016.2
2015-Apr-26 09:24N 25°50' W 077°44'2022.3
2015-Apr-26 08:31N 26°01' W 078°02'2222.9
2015-Apr-26 07:33N 26°12' W 078°23'30 4.7
2015-Apr-26 01:08N 26°29' W 078°51'3421.0
2015-Apr-25 23:32N 26°05' W 079°18'2323.7
2015-Apr-25 22:34N 25°44' W 079°27'  

Dump ship's entire track history